createdAt,value
2023-01-04T00:01:38.172Z,101963.81
2023-01-04T00:04:04.626Z,101942.56
2023-01-04T00:06:31.144Z,101941.56
2023-01-04T00:08:57.523Z,101938.38
2023-01-04T00:11:24.663Z,101934.31
2023-01-04T00:13:53.479Z,101932.44
2023-01-04T00:16:22.607Z,101947.22
2023-01-04T00:18:49.848Z,101935.19
2023-01-04T00:21:34.630Z,101938.06
2023-01-04T00:24:01.768Z,101932.94
2023-01-04T00:26:31.282Z,101936.38
2023-01-04T00:29:00.548Z,101922.81
2023-01-04T00:31:28.279Z,101911.66
2023-01-04T00:33:56.685Z,101905.66
2023-01-04T00:36:23.537Z,101885.97
2023-01-04T00:39:09.876Z,101885.19
2023-01-04T00:42:07.348Z,101885.91
2023-01-04T00:44:34.975Z,101867.13
2023-01-04T00:47:02.847Z,101870.50
2023-01-04T00:49:30.146Z,101884.44
2023-01-04T00:51:57.348Z,101861.00
2023-01-04T00:54:24.055Z,101855.00
2023-01-04T00:56:50.715Z,101848.81
2023-01-04T00:59:19.862Z,101839.28
2023-01-04T01:01:46.871Z,101832.44
2023-01-04T01:04:15.986Z,101825.53
2023-01-04T01:06:42.513Z,101816.31
2023-01-04T01:09:09.635Z,101817.56
2023-01-04T01:11:37.975Z,101819.41
2023-01-04T01:14:05.106Z,101803.78
2023-01-04T01:16:53.608Z,101806.13
2023-01-04T01:19:17.960Z,101799.34
2023-01-04T01:21:44.403Z,101793.28
2023-01-04T01:24:16.772Z,101786.44
2023-01-04T01:26:43.358Z,101782.19
2023-01-04T01:29:09.724Z,101772.22
2023-01-04T01:31:36.305Z,101773.88
2023-01-04T01:34:02.836Z,101760.09
2023-01-04T01:36:29.499Z,101747.97
2023-01-04T01:38:56.096Z,101755.91
2023-01-04T01:41:31.236Z,101743.97
2023-01-04T01:44:01.750Z,101739.78
2023-01-04T01:46:42.561Z,101741.69
2023-01-04T01:49:25.778Z,101730.28
2023-01-04T01:51:55.686Z,101728.63
2023-01-04T01:54:35.629Z,101716.00
2023-01-04T01:57:05.758Z,101707.50
2023-01-04T01:59:35.930Z,101703.31
2023-01-04T02:02:02.925Z,101693.81
2023-01-04T02:04:30.679Z,101684.38
2023-01-04T02:06:59.504Z,101679.38
2023-01-04T02:09:26.062Z,101675.03
2023-01-04T02:11:52.484Z,101664.03
2023-01-04T02:14:29.768Z,101664.03
2023-01-04T02:16:56.659Z,101663.28
2023-01-04T02:19:50.043Z,101664.19
2023-01-04T02:22:43.701Z,101653.16
2023-01-04T02:25:41.094Z,101643.16
2023-01-04T02:28:39.312Z,101644.16
2023-01-04T02:31:23.855Z,101632.28
2023-01-04T02:34:23.870Z,101621.16
2023-01-04T02:37:18.902Z,101598.09
2023-01-04T02:40:04.386Z,101600.72
2023-01-04T02:43:12.243Z,101588.38
2023-01-04T02:45:53.193Z,101572.88
2023-01-04T02:48:38.195Z,101573.06
2023-01-04T02:51:04.696Z,101561.09
2023-01-04T02:53:41.948Z,101550.66
2023-01-04T02:56:35.609Z,101543.91
2023-01-04T02:59:24.852Z,101540.53
2023-01-04T03:02:16.426Z,101535.47
2023-01-04T03:05:19.487Z,101522.25
2023-01-04T03:07:54.606Z,101511.00
2023-01-04T03:10:26.948Z,101502.38
2023-01-04T03:13:13.734Z,101490.31
2023-01-04T03:15:42.653Z,101491.28
2023-01-04T03:18:38.149Z,101474.28
2023-01-04T03:21:07.752Z,101463.16
2023-01-04T03:23:55.402Z,101458.69
2023-01-04T03:26:45.290Z,101455.00
2023-01-04T03:30:02.166Z,101441.38
2023-01-04T03:32:58.826Z,101431.75
2023-01-04T03:35:41.344Z,101421.34
2023-01-04T03:38:47.342Z,101412.78
2023-01-04T03:41:48.518Z,101410.94
2023-01-04T03:44:42.399Z,101400.53
2023-01-04T03:47:31.788Z,101393.50
2023-01-04T03:50:06.474Z,101378.69
2023-01-04T03:52:34.673Z,101379.47
2023-01-04T03:55:03.412Z,101378.75
2023-01-04T03:57:30.245Z,101367.34
2023-01-04T04:00:06.137Z,101360.38
2023-01-04T04:02:36.351Z,101363.78
2023-01-04T04:05:22.242Z,101350.72
2023-01-04T04:08:07.193Z,101343.84
2023-01-04T04:10:33.908Z,101331.88
2023-01-04T04:13:00.241Z,101335.94
2023-01-04T04:15:26.589Z,101317.00
2023-01-04T04:17:53.017Z,101320.38
2023-01-04T04:20:19.352Z,101318.66
2023-01-04T04:22:45.841Z,101307.63
2023-01-04T04:25:12.185Z,101303.91
2023-01-04T04:27:38.535Z,101293.44
2023-01-04T04:30:05.634Z,101292.63
2023-01-04T04:32:32.473Z,101290.06
2023-01-04T04:34:58.806Z,101278.78
2023-01-04T04:37:27.221Z,101268.63
2023-01-04T04:39:53.569Z,101254.00
2023-01-04T04:42:20.192Z,101257.50
2023-01-04T04:44:46.558Z,101247.31
2023-01-04T04:47:13.071Z,101240.34
2023-01-04T04:49:39.401Z,101226.69
2023-01-04T04:52:05.917Z,101218.19
2023-01-04T04:54:32.268Z,101217.38
2023-01-04T04:56:58.809Z,101214.78
2023-01-04T04:59:25.362Z,101227.63
2023-01-04T05:01:51.908Z,101214.78
2023-01-04T05:04:19.511Z,101195.97
2023-01-04T05:06:48.248Z,101206.34
2023-01-04T05:09:14.750Z,101186.00
2023-01-04T05:12:00.334Z,101178.25
2023-01-04T05:14:27.208Z,101185.16
2023-01-04T05:16:53.888Z,101181.75
2023-01-04T05:19:20.308Z,101176.59
2023-01-04T05:21:46.672Z,101157.84
2023-01-04T05:24:13.246Z,101147.56
2023-01-04T05:26:40.374Z,101158.97
2023-01-04T05:29:06.723Z,101153.00
2023-01-04T05:31:33.140Z,101121.22
2023-01-04T05:33:59.505Z,101135.94
2023-01-04T05:36:25.946Z,101138.69
2023-01-04T05:38:52.287Z,101129.34
2023-01-04T05:41:37.586Z,101126.81
2023-01-04T05:44:03.921Z,101128.53
2023-01-04T05:46:30.379Z,101116.72
2023-01-04T05:48:56.771Z,101095.56
2023-01-04T05:51:23.362Z,101099.81
2023-01-04T05:53:49.694Z,101087.16
2023-01-04T05:56:16.068Z,101084.59
2023-01-04T05:58:42.405Z,101062.59
2023-01-04T06:01:08.799Z,101068.84
2023-01-04T06:03:35.294Z,101062.94
2023-01-04T06:06:01.810Z,101052.78
2023-01-04T06:08:28.171Z,101048.50
2023-01-04T06:10:54.949Z,101051.28
2023-01-04T06:13:21.364Z,101044.78
2023-01-04T06:15:47.698Z,101059.41
2023-01-04T06:18:14.248Z,101039.94
2023-01-04T06:20:41.932Z,101033.28
2023-01-04T06:23:09.088Z,101031.66
2023-01-04T06:25:35.465Z,101032.09
2023-01-04T06:28:01.909Z,101022.00
2023-01-04T06:30:28.993Z,101012.47
2023-01-04T06:32:55.443Z,101016.13
2023-01-04T06:35:21.796Z,101010.16
2023-01-04T06:37:48.282Z,101005.22
2023-01-04T06:40:14.667Z,101006.22
2023-01-04T06:42:47.135Z,100991.81
2023-01-04T06:45:15.661Z,100997.91
2023-01-04T06:47:42.109Z,101005.78
2023-01-04T06:50:09.120Z,100986.88
2023-01-04T06:52:35.823Z,100978.28
2023-01-04T06:55:02.171Z,100968.88
2023-01-04T06:57:28.759Z,100974.00
2023-01-04T06:59:55.864Z,100972.44
2023-01-04T07:02:22.342Z,100964.72
2023-01-04T07:04:48.854Z,100960.44
2023-01-04T07:07:15.410Z,100950.22
2023-01-04T07:09:41.793Z,100946.03
2023-01-04T07:12:08.167Z,100949.56
2023-01-04T07:14:34.539Z,100943.56
2023-01-04T07:17:00.927Z,100941.13
2023-01-04T07:19:27.319Z,100940.50
2023-01-04T07:21:53.933Z,100940.56
2023-01-04T07:24:26.114Z,100934.59
2023-01-04T07:26:56.625Z,100928.81
2023-01-04T07:29:23.016Z,100937.44
2023-01-04T07:31:51.266Z,100925.63
2023-01-04T07:34:19.309Z,100918.84
2023-01-04T07:36:47.334Z,100910.22
2023-01-04T07:39:13.900Z,100912.06
2023-01-04T07:41:41.983Z,100910.47
2023-01-04T07:44:09.352Z,100902.03
2023-01-04T07:46:36.485Z,100902.13
2023-01-04T07:49:03.620Z,100904.00
2023-01-04T07:51:31.459Z,100907.53
2023-01-04T07:53:58.131Z,100904.19
2023-01-04T07:56:24.682Z,100905.25
2023-01-04T07:58:51.110Z,100897.69
2023-01-04T08:01:19.412Z,100894.34
2023-01-04T08:03:47.385Z,100909.06
2023-01-04T08:06:16.550Z,100909.06
2023-01-04T08:08:43.673Z,100895.31
2023-01-04T08:11:12.882Z,100903.25
2023-01-04T08:13:39.225Z,100894.63
2023-01-04T08:16:05.879Z,100882.66
2023-01-04T08:18:32.303Z,100893.03
2023-01-04T08:21:09.321Z,100891.44
2023-01-04T08:23:37.595Z,100899.25
2023-01-04T08:26:09.667Z,100872.69
2023-01-04T08:28:36.460Z,100885.53
2023-01-04T08:31:12.152Z,100888.25
2023-01-04T08:33:39.486Z,100883.94
2023-01-04T08:36:10.485Z,100894.38
2023-01-04T08:41:55.943Z,100889.50
2023-01-04T08:44:09.995Z,100905.94
2023-01-04T08:46:36.442Z,100885.41
2023-01-04T08:49:02.795Z,100894.94
2023-01-04T08:51:29.269Z,100883.78
2023-01-04T08:53:55.609Z,100885.47
2023-01-04T08:56:21.985Z,100878.00
2023-01-04T08:58:48.316Z,100866.94
2023-01-04T09:01:14.955Z,100869.44
2023-01-04T09:03:41.985Z,100866.91
2023-01-04T09:06:14.148Z,100864.38
2023-01-04T09:08:41.844Z,100854.13
2023-01-04T09:11:12.146Z,100853.41
2023-01-04T09:13:38.643Z,100848.31
2023-01-04T09:16:08.161Z,100842.41
2023-01-04T09:18:35.040Z,100848.56
2023-01-04T09:21:10.875Z,100848.56
2023-01-04T09:23:37.797Z,100847.81
2023-01-04T09:26:12.578Z,100851.28
2023-01-04T09:28:39.086Z,100847.94
2023-01-04T09:31:11.445Z,100841.06
2023-01-04T09:34:12.057Z,100839.38
2023-01-04T09:36:25.057Z,100839.38
2023-01-04T09:38:54.928Z,100837.72
2023-01-04T09:41:26.518Z,100842.09
2023-01-04T09:43:56.397Z,100830.91
2023-01-04T09:46:32.533Z,100834.28
2023-01-04T09:49:13.571Z,100832.66
2023-01-04T09:51:43.692Z,100825.84
2023-01-04T09:54:20.522Z,100824.13
2023-01-04T09:56:58.171Z,100811.31
2023-01-04T09:59:32.590Z,100819.16
2023-01-04T10:02:10.856Z,100813.16
2023-01-04T10:04:40.452Z,100815.66
2023-01-04T10:07:14.583Z,100806.28
2023-01-04T10:09:41.099Z,100811.56
2023-01-04T10:12:32.040Z,100804.63
2023-01-04T10:15:13.876Z,100802.09
2023-01-04T10:21:26.334Z,100798.00
2023-01-04T10:24:07.339Z,100816.91
2023-01-04T10:26:40.917Z,100785.09
2023-01-04T10:29:44.437Z,100792.84
2023-01-04T10:32:21.971Z,100774.81
2023-01-04T10:34:48.974Z,100771.38
2023-01-04T10:37:15.243Z,100783.50
2023-01-04T10:39:42.681Z,100777.50
2023-01-04T10:42:30.634Z,100778.38
2023-01-04T10:45:09.507Z,100781.09
2023-01-04T10:47:47.542Z,100769.03
2023-01-04T10:50:22.381Z,100756.94
2023-01-04T10:53:01.528Z,100771.66
2023-01-04T10:55:38.539Z,100761.38
2023-01-04T10:58:27.439Z,100763.16
2023-01-04T11:01:00.501Z,100760.56
2023-01-04T11:03:46.526Z,100761.50
2023-01-04T11:06:30.963Z,100757.22
2023-01-04T11:09:11.484Z,100753.81
2023-01-04T11:11:44.605Z,100746.97
2023-01-04T11:14:11.484Z,100750.34
2023-01-04T11:16:40.568Z,100744.41
2023-01-04T11:19:09.594Z,100752.22
2023-01-04T11:21:43.439Z,100746.19
2023-01-04T11:26:59.854Z,100741.88
2023-01-04T11:29:40.698Z,100736.75
2023-01-04T11:32:41.069Z,100737.63
2023-01-04T11:35:08.600Z,100741.13
2023-01-04T11:37:40.413Z,100742.78
2023-01-04T11:40:18.840Z,100731.56
2023-01-04T11:42:47.321Z,100723.03
2023-01-04T11:45:17.984Z,100719.63
2023-01-04T11:47:55.875Z,100717.06
2023-01-04T11:51:01.078Z,100732.56
2023-01-04T11:53:34.307Z,100711.03
2023-01-04T11:56:19.325Z,100712.78
2023-01-04T11:59:24.547Z,100719.63
2023-01-04T12:01:53.109Z,100711.09
2023-01-04T12:04:26.017Z,100706.84
2023-01-04T12:06:58.102Z,100718.88
2023-01-04T12:09:24.464Z,100712.84
2023-01-04T12:11:53.391Z,100711.94
2023-01-04T12:14:28.886Z,100699.03
2023-01-04T12:16:55.555Z,100700.81
2023-01-04T12:19:22.771Z,100693.91
2023-01-04T12:21:53.198Z,100698.28
2023-01-04T12:24:23.090Z,100700.06
2023-01-04T12:26:51.189Z,100697.56
2023-01-04T12:29:23.639Z,100689.81
2023-01-04T12:31:51.252Z,100692.41
2023-01-04T12:34:25.837Z,100694.94
2023-01-04T12:37:05.265Z,100686.28
2023-01-04T12:39:41.860Z,100689.03
2023-01-04T12:42:15.840Z,100685.59
2023-01-04T12:44:51.671Z,100694.25
2023-01-04T12:47:36.908Z,100687.38
2023-01-04T12:50:11.755Z,100693.41
2023-01-04T12:53:10.676Z,100690.88
2023-01-04T12:55:31.748Z,100687.44
2023-01-04T12:58:03.912Z,100695.22
2023-01-04T13:00:52.191Z,100686.59
2023-01-04T13:03:18.704Z,100688.31
2023-01-04T13:06:04.483Z,100681.38
2023-01-04T13:08:35.686Z,100683.94
2023-01-04T13:11:05.023Z,100681.41
2023-01-04T13:13:49.319Z,100679.78
2023-01-04T13:16:36.742Z,100672.00
2023-01-04T13:19:09.727Z,100662.47
2023-01-04T13:21:42.256Z,100658.22
2023-01-04T13:24:17.601Z,100665.94
2023-01-04T13:26:48.399Z,100662.50
2023-01-04T13:29:31.988Z,100653.91
2023-01-04T13:32:04.108Z,100652.13
2023-01-04T13:34:37.185Z,100645.25
2023-01-04T13:37:17.231Z,100645.25
2023-01-04T13:39:49.615Z,100639.22
2023-01-04T13:42:36.386Z,100632.41
2023-01-04T13:45:32.444Z,100639.28
2023-01-04T13:48:02.811Z,100634.09
2023-01-04T13:50:34.775Z,100634.09
2023-01-04T13:53:07.549Z,100633.22
2023-01-04T13:55:37.861Z,100632.34
2023-01-04T13:58:20.347Z,100621.13
2023-01-04T14:00:54.574Z,100621.97
2023-01-04T14:03:40.149Z,100625.59
2023-01-04T14:06:06.472Z,100604.94
2023-01-04T14:08:37.095Z,100615.22
2023-01-04T14:11:37.397Z,100609.16
2023-01-04T14:14:05.854Z,100605.72
2023-01-04T14:16:32.342Z,100604.06
2023-01-04T14:18:58.779Z,100593.72
2023-01-04T14:21:34.877Z,100586.81
2023-01-04T14:24:01.311Z,100579.84
2023-01-04T14:26:34.030Z,100590.28
2023-01-04T14:29:21.018Z,100585.97
2023-01-04T14:31:47.447Z,100577.41
2023-01-04T14:34:14.634Z,100588.66
2023-01-04T14:36:42.123Z,100591.22
2023-01-04T14:39:11.522Z,100586.09
2023-01-04T14:41:53.492Z,100581.69
2023-01-04T14:44:25.818Z,100567.94
2023-01-04T14:46:55.030Z,100577.28
2023-01-04T14:49:22.446Z,100570.38
2023-01-04T14:51:58.416Z,100590.28
2023-01-04T14:54:26.627Z,100586.84
2023-01-04T14:56:54.494Z,100568.69
2023-01-04T14:59:23.946Z,100565.31
2023-01-04T15:01:55.632Z,100574.72
2023-01-04T15:04:23.021Z,100563.53
2023-01-04T15:06:56.255Z,100575.47
2023-01-04T15:09:22.892Z,100551.34
2023-01-04T15:11:49.283Z,100552.06
2023-01-04T15:14:15.777Z,100554.72
2023-01-04T15:16:42.480Z,100552.00
2023-01-04T15:19:09.265Z,100571.03
2023-01-04T15:21:40.861Z,100552.00
2023-01-04T15:24:08.242Z,100561.44
2023-01-04T15:26:34.679Z,100552.03
2023-01-04T15:29:01.194Z,100554.66
2023-01-04T15:31:32.392Z,100561.63
2023-01-04T15:34:03.624Z,100551.38
2023-01-04T15:36:29.992Z,100541.16
2023-01-04T15:38:56.464Z,100542.94
2023-01-04T15:41:55.141Z,100545.53
2023-01-04T15:44:21.512Z,100549.94
2023-01-04T15:46:47.892Z,100543.03
2023-01-04T15:49:17.645Z,100551.69
2023-01-04T15:51:45.187Z,100554.25
2023-01-04T15:54:11.666Z,100538.75
2023-01-04T15:56:38.246Z,100543.91
2023-01-04T15:59:04.706Z,100530.09
2023-01-04T16:01:31.114Z,100524.97
2023-01-04T16:03:57.537Z,100521.50
2023-01-04T16:06:23.954Z,100518.91
2023-01-04T16:08:52.015Z,100520.66
2023-01-04T16:11:23.457Z,100525.00
2023-01-04T16:13:52.236Z,100540.47
2023-01-04T16:16:20.519Z,100536.28
2023-01-04T16:18:49.532Z,100541.50
2023-01-04T16:21:20.180Z,100539.81
2023-01-04T16:23:53.979Z,100538.09
2023-01-04T16:26:23.009Z,100568.16
2023-01-04T16:28:54.693Z,100551.78
2023-01-04T16:31:22.331Z,100532.63
2023-01-04T16:33:53.071Z,100535.09
2023-01-04T16:36:19.499Z,100538.47
2023-01-04T16:38:45.957Z,100538.44
2023-01-04T16:41:15.012Z,100550.53
2023-01-04T16:43:49.540Z,100559.16
2023-01-04T16:46:27.445Z,100553.91
2023-01-04T16:49:07.575Z,100560.69
2023-01-04T16:51:36.231Z,100554.56
2023-01-04T16:54:04.793Z,100563.13
2023-01-04T16:56:31.356Z,100570.81
2023-01-04T16:58:57.939Z,100569.16
2023-01-04T17:01:27.870Z,100563.13
2023-01-04T17:04:10.613Z,100556.13
2023-01-04T17:06:43.367Z,100553.44
2023-01-04T17:09:13.618Z,100585.28
2023-01-04T17:14:29.743Z,100566.41
2023-01-04T17:16:57.523Z,100566.41
2023-01-04T17:19:24.229Z,100563.81
2023-01-04T17:21:50.839Z,100562.16
2023-01-04T17:24:17.664Z,100569.94
2023-01-04T17:26:44.296Z,100556.13
2023-01-04T17:29:11.521Z,100568.97
2023-01-04T17:31:40.247Z,100564.69
2023-01-04T17:34:08.119Z,100545.75
2023-01-04T17:36:34.765Z,100550.91
2023-01-04T17:39:01.933Z,100551.00
2023-01-04T17:41:30.164Z,100552.75
2023-01-04T17:44:05.674Z,100559.66
2023-01-04T17:46:34.922Z,100544.19
2023-01-04T17:51:52.724Z,100544.16
2023-01-04T17:54:20.843Z,100551.94
2023-01-04T17:56:47.222Z,100553.66
2023-01-04T17:59:13.634Z,100576.09
2023-01-04T18:01:40.084Z,100554.63
2023-01-04T18:04:06.609Z,100557.25
2023-01-04T18:06:35.380Z,100542.66
2023-01-04T18:09:03.796Z,100544.41
2023-01-04T18:11:30.189Z,100542.63
2023-01-04T18:13:56.571Z,100553.84
2023-01-04T18:16:28.702Z,100547.00
2023-01-04T18:18:59.418Z,100546.13
2023-01-04T18:21:30.314Z,100564.19
2023-01-04T18:29:36.306Z,100543.19
2023-01-04T18:32:02.884Z,100539.66
2023-01-04T18:34:29.296Z,100539.66
2023-01-04T18:36:55.735Z,100539.69
2023-01-04T18:39:22.399Z,100530.16
2023-01-04T18:41:48.912Z,100534.53
2023-01-04T18:47:02.438Z,100528.47
2023-01-04T18:49:28.871Z,100532.81
2023-01-04T18:51:55.357Z,100531.06
2023-01-04T18:54:22.038Z,100529.44
2023-01-04T18:56:48.755Z,100509.66
2023-01-04T18:59:17.187Z,100528.66
2023-01-04T19:01:44.275Z,100517.38
2023-01-04T19:04:12.366Z,100530.28
2023-01-04T19:06:40.372Z,100529.44
2023-01-04T19:09:07.455Z,100531.97
2023-01-04T19:11:34.924Z,100526.69
2023-01-04T19:14:02.789Z,100527.56
2023-01-04T19:16:32.187Z,100535.28
2023-01-04T19:18:59.937Z,100522.38
2023-01-04T19:21:26.970Z,100523.16
2023-01-04T19:23:53.417Z,100520.53
2023-01-04T19:26:20.789Z,100525.75
2023-01-04T19:28:47.372Z,100522.28
2023-01-04T19:31:14.795Z,100506.75
2023-01-04T19:33:41.419Z,100509.41
2023-01-04T19:36:10.215Z,100516.34
2023-01-04T19:38:37.701Z,100517.19
2023-01-04T19:41:05.660Z,100508.66
2023-01-04T19:43:32.330Z,100504.28
2023-01-04T19:45:59.486Z,100503.47
2023-01-04T19:48:26.444Z,100504.38
2023-01-04T19:51:22.422Z,100504.31
2023-01-04T19:53:48.777Z,100490.56
2023-01-04T19:56:16.849Z,100510.31
2023-01-04T19:58:43.789Z,100502.53
2023-01-04T20:01:15.485Z,100504.28
2023-01-04T20:03:42.583Z,100509.44
2023-01-04T20:06:10.158Z,100507.59
2023-01-04T20:08:36.708Z,100514.44
2023-01-04T20:11:03.561Z,100534.19
2023-01-04T20:13:31.381Z,100535.75
2023-01-04T20:15:57.877Z,100540.75
2023-01-04T20:18:24.235Z,100536.41
2023-01-04T20:20:52.227Z,100540.63
2023-01-04T20:23:19.582Z,100530.22
2023-01-04T20:25:48.554Z,100524.94
2023-01-04T20:28:17.163Z,100519.78
2023-01-04T20:30:43.690Z,100518.91
2023-01-04T20:33:10.268Z,100525.75
2023-01-04T20:35:42.083Z,100536.06
2023-01-04T20:38:09.856Z,100521.34
2023-01-04T20:40:37.272Z,100512.69
2023-01-04T20:43:22.397Z,100522.09
2023-01-04T20:45:49.053Z,100522.06
2023-01-04T20:48:16.118Z,100517.72
2023-01-04T20:50:43.209Z,100520.34
2023-01-04T20:53:11.292Z,100521.28
2023-01-04T20:55:42.332Z,100524.69
2023-01-04T20:58:10.480Z,100536.72
2023-01-04T21:00:37.846Z,100518.59
2023-01-04T21:03:06.222Z,100538.47
2023-01-04T21:05:42.001Z,100536.81
2023-01-04T21:08:08.877Z,100539.44
2023-01-04T21:10:36.536Z,100529.94
2023-01-04T21:13:03.754Z,100531.72
2023-01-04T21:15:30.287Z,100536.91
2023-01-04T21:17:56.694Z,100546.47
2023-01-04T21:20:24.559Z,100543.88
2023-01-04T21:22:51.088Z,100531.81
2023-01-04T21:25:17.609Z,100554.31
2023-01-04T21:27:44.038Z,100546.63
2023-01-04T21:30:10.980Z,100553.47
2023-01-04T21:32:37.379Z,100549.13
2023-01-04T21:35:04.371Z,100554.31
2023-01-04T21:37:30.742Z,100549.16
2023-01-04T21:39:57.108Z,100550.84
2023-01-04T21:42:23.427Z,100539.66
2023-01-04T21:44:49.791Z,100541.34
2023-01-04T21:47:16.115Z,100541.38
2023-01-04T21:49:43.881Z,100543.16
2023-01-04T21:52:11.293Z,100544.94
2023-01-04T21:54:38.874Z,100551.81
2023-01-04T21:57:07.827Z,100537.22
2023-01-04T21:59:35.583Z,100546.66
2023-01-04T22:02:02.099Z,100548.25
2023-01-04T22:04:28.780Z,100541.44
2023-01-04T22:06:55.141Z,100552.69
2023-01-04T22:09:21.782Z,100554.47
2023-01-04T22:11:49.984Z,100557.06
2023-01-04T22:14:17.273Z,100562.16
2023-01-04T22:16:43.724Z,100556.13
2023-01-04T22:19:14.197Z,100570.91
2023-01-04T22:21:41.189Z,100566.66
2023-01-04T22:24:09.981Z,100567.56
2023-01-04T22:26:36.310Z,100559.72
2023-01-04T22:29:02.734Z,100576.13
2023-01-04T22:31:29.159Z,100565.75
2023-01-04T22:33:55.623Z,100569.16
2023-01-04T22:36:23.745Z,100571.00
2023-01-04T22:38:55.654Z,100574.41
2023-01-04T22:41:24.893Z,100577.06
2023-01-04T22:43:56.988Z,100591.56
2023-01-04T22:46:24.080Z,100583.78
2023-01-04T22:48:50.581Z,100582.13
2023-01-04T22:51:18.588Z,100595.06
2023-01-04T22:53:45.429Z,100593.31
2023-01-04T22:56:19.599Z,100587.22
2023-01-04T22:58:53.051Z,100583.94
2023-01-04T23:01:21.586Z,100591.66
2023-01-04T23:03:48.514Z,100601.97
2023-01-04T23:06:15.365Z,100613.22
2023-01-04T23:08:41.794Z,100593.41
2023-01-04T23:11:10.702Z,100601.97
2023-01-04T23:13:37.132Z,100609.72
2023-01-04T23:16:09.760Z,100607.97
2023-01-04T23:18:36.857Z,100602.00
2023-01-04T23:21:04.344Z,100602.00
2023-01-04T23:23:30.879Z,100614.81
2023-01-04T23:25:57.401Z,100608.78
2023-01-04T23:28:23.825Z,100603.59
2023-01-04T23:30:50.236Z,100612.22
2023-01-04T23:33:16.723Z,100618.22
2023-01-04T23:35:43.065Z,100613.97
2023-01-04T23:38:09.473Z,100611.34
2023-01-04T23:40:35.870Z,100622.47
2023-01-04T23:43:02.277Z,100621.59
2023-01-04T23:45:28.835Z,100632.63
2023-01-04T23:47:55.282Z,100631.63
2023-01-04T23:50:22.143Z,100622.13
2023-01-04T23:52:48.870Z,100641.09
2023-01-04T23:55:15.264Z,100649.66
2023-01-04T23:57:41.637Z,100641.78
